NCAR-RAP Real-Time Weather Data

Output produced by METARs form (23 January 2018  15:51 UTC)
found at http://weather.rap.ucar.edu/surface/
 
RJOI 231455Z 32009G15KT 9999 FEW025 SCT060 01/M06 A3007 RMK SLP182 T00111061 400830011 53003
RJOI 231355Z 26008KT 9999 FEW020 FEW035 SCT060 02/M08 A3007 RMK SLP181 T00171083
RJOI 231255Z 26011KT 9999 FEW020 FEW035 SCT060 02/M08 A3006 RMK SLP179 T00171078
RJOI 231155Z COR 28012KT 9999 FEW020 FEW035 SCT060 02/M08 A3007 RMK SLP182 70001 T00221083 10072 20022 51010
RJOI 231055Z 26016G23KT 9999 FEW020 FEW035 SCT050 02/M10 A3006 RMK SLP179 T00221100
RJOI 230955Z 25018G24KT 9999 SCT040 02/M10 A3005 RMK SLP177 T00221100
RJOI 230855Z 28012KT 9999 FEW040 SCT210 03/M09 A3003 RMK PK WND 30027/0816 SLP169 T00331094 53017
RJOI 230755Z 28015G27KT 9999 FEW040 SCT210 04/M11 A3001 RMK PK WND 29032/0738 SLP163 T00441111
RJOI 230655Z 29020G28KT 9999 FEW040 SCT210 06/M11 A2999 RMK PK WND 28030/0635 SLP156 T00611111
RJOI 230555Z 27014G22KT 9999 FEW040 SCT210 07/M07 A2998 RMK PK WND 27030/0504 SLP153 60000 T00671072 10083 20061 56010
RJOI 230455Z 28021G29KT 9999 SCT040 SCT210 08/M07 A2998 RMK PK WND 29031/0409 SLP153 T00781067
RJOI 230355Z 27013G22KT 9999 FEW015 SCT040 SCT210 07/M02 A2998 RMK PK WND 29026/0326 RAE09 SLP151 P0000 T00721017
RJOI 230255Z 26012G21KT 9999 -RA SCT015 BKN040 07/01 A3001 RMK RAB10 SLP160 P0000 60000 T00670011 51014
RJOI 230155Z 26015G20KT 9999 BKN040 08/M01 A3000 RMK SLP157 T00781006
RJOI 230055Z 25014G18KT 9999 FEW040 08/M01 A2998 RMK SLP153 T00781011
RJOI 222355Z 24012G24KT 8000 HZ FEW040 07/01 A2997 RMK SLP149 60000 T00720006 10078 20044 53020
RJOI 222255Z COR 23012G21KT 8000 HZ FEW040 07/01 A2994 RMK SLP139 T00720006
RJOI 222155Z 25011KT 6000 HZ FEW040 07/01 A2993 RMK SLP134 T00720006
RJOI 222055Z 26011G20KT 9000 HZ FEW020 SCT040 08/02 A2991 RMK SHRAE1959 SLP126 WR P0000 60001 T00780022 55000
RJOI 221955Z 23009G15KT 9999 -SHRA FEW020 BKN050 BKN070 07/04 A2989 RMK SHRAB21 SLP120 P0000 T00720044
RJOI 221855Z 26008KT 9999 FEW020 BKN035 BKN070 07/04 A2990 RMK SHRAE45 SLP124 P0001 T00720039
RJOI 221755Z 00000KT 9999 -SHRA FEW020 BKN035 OVC045 04/03 A2990 RMK SHRAB44 SLP123 P0000 60000 T00440033 10050 20022 55007
RJOI 221655Z 32003KT 9999 FEW030 BKN055 BKN075 05/03 A2989 RMK SLP122 T00500033
RJOI 221555Z 00000KT 9999 FEW030 SCT050 BKN065 03/02 A2991 RMK SLP127 T00330022
RJOI 221455Z 36004KT 9999 FEW020 FEW040 03/02 A2992 RMK SLP133 T00280017 400720017 58007
RJOI 221355Z 33005KT 9999 FEW020 FEW040 02/01 A2994 RMK SLP137 T00220011
RJOI 221255Z VRB03KT 9999 FEW020 02/02 A2996 RMK SLP143 T00220017
RJOI 221155Z 29006KT 9999 FEW015 FEW040 03/02 A2994 RMK SLP140 70074 T00280017 10056 20022 50000
RJOI 221055Z 30006KT 9999 FEW015 FEW040 02/02 A2995 RMK SLP140 T00220017
RJOI 220955Z 28004KT 9999 FEW015 FEW025 SCT045 03/02 A2995 RMK SLP141 T00280017
RJOI 220855Z 00000KT 9999 FEW015 FEW025 BKN045 04/02 A2995 RMK SLP140 T00390022 53014
RJOI 220755Z 28005KT 9999 FEW015 BKN030 BKN045 05/03 A2992 RMK SLP133 T00500028
RJOI 220655Z 02008KT 9999 FEW010 SCT025 SCT100 06/03 A2991 RMK SLP129 T00560028
RJOI 220555Z 35007KT 9999 FEW010 BKN025 OVC040 04/03 A2990 RMK SHRAE38 SLP125 P0002 60062 T00440028 10044 20017 56017
RJOI 220455Z 31003KT 8000 -SHRA BR SCT010 BKN025 OVC040 03/02 A2990 RMK SNE06 SLP124 P0007 T00330022
RJOI 220355Z 35008KT 6000 -SHRASN BR SCT008 BKN010 OVC030 02/02 A2991 RMK SLP128 P0014 T00220017
RJOI 220255Z 35008KT 4000 SHRASN BR SCT008 BKN010 OVC030 02/01 A2995 RMK SLP142 P0011 60039 T00170011 58027
RJOI 220155Z 35007KT 4000 -RASN BR SCT008 BKN010 OVC030 02/01 A3000 RMK SNB30 SLP159 P0010 T00170011
RJOI 220139Z COR 35007KT 4000 -RASN BR SCT008 BKN010 OVC030 02/01 A3001 RMK SLP162
RJOI 220055Z 04008KT 6000 RA BR FEW010 BKN015 OVC035 03/02 A3003 RMK SLP168 P0018 T00330017
RJOI 212355Z 03011KT 6000 -RA BR SCT015 BKN025 OVC035 04/02 A3004 RMK SLP171 P0010 60012 T00390022 10072 20039 52010
RJOI 212255Z 05010KT 8000 -RA SCT015 BKN030 OVC040 06/02 A3002 RMK SLP166 P0002 T00560017
RJOI 212155Z 02009KT 9999 -RA SCT030 BKN045 OVC080 07/M01 A3002 RMK RAB45 SLP164 P0000 T00721011
RJOI 212055Z 03013KT 9999 FEW035 BKN080 OVC120 07/M01 A3001 RMK SLP160 T00721006 58020
RJOI 211955Z 02012KT 9999 FEW045 BKN100 OVC200 07/M01 A3003 RMK SLP170 T00671011
RJOI 211855Z 02014KT 9999 BKN150 OVC230 07/M02 A3004 RMK SLP174 T00721017
RJOI 211755Z 00000KT 9999 FEW045 BKN150 OVC230 06/M02 A3007 RMK SLP181 T00561017 10078 20056 58014
RJOI 211655Z 36010KT 9999 FEW045 BKN150 OVC230 07/M01 A3008 RMK SLP186 T00671011
RJOI 211555Z 36008KT 9999 FEW045 SCT150 OVC230 07/M01 A3010 RMK SLP192 T00671011
RJOI 211455Z 03013KT 9999 FEW045 SCT150 OVC230 07/M01 A3011 RMK SLP195 T00721006 401170022 58017
RJOI 211355Z 03012KT 9999 FEW045 OVC230 07/M01 A3014 RMK SLP205 T00721011
RJOI 211255Z 02011KT 9999 FEW020 BKN230 07/M01 A3015 RMK SLP209 T00721011
RJOI 211155Z 01015KT 9999 FEW020 BKN230 08/M02 A3015 RMK SLP208 T00781017 10111 20078 51003
RJOI 211055Z 02015KT 9999 FEW045 BKN230 08/M02 A3015 RMK SLP209 T00831022
RJOI 210955Z 02014KT 9999 FEW030 SCT060 BKN210 09/M03 A3015 RMK SLP210 T00891028
RJOI 210855Z 01011KT 9999 FEW030 BKN060 BKN210 09/M03 A3014 RMK SLP207 T00941033 53007
RJOI 210755Z 05007KT 9999 FEW040 SCT060 BKN210 11/M02 A3012 RMK SLP199 T01061017
RJOI 210655Z 05009KT 9999 FEW040 SCT060 BKN210 11/00 A3011 RMK SLP196 T01060000
RJOI 210555Z 05011KT 9999 FEW040 SCT060 BKN210 11/01 A3012 RMK SLP199 T01110006 10117 20044 56014
RJOI 210455Z 07005KT 9999 FEW040 BKN060 BKN210 11/M01 A3013 RMK SLP202 T01061006
RJOI 210355Z 10008KT 9999 FEW040 SCT060 BKN210 11/01 A3013 RMK SLP203 T01110006